Time;durP1;ratioP1;P1;durP2;ratioP2;P2;SDS_P1;SDS_P2;PMS_P1;PMS_P2;Temp;Humidity;BMP_temperature;BMP_pressure;BME280_temperature;BME280_humidity;BME280_pressure;Samples;Min_cycle;Max_cycle;Signal;HPM_P1;HPM_P2
2021/04/08 00:01:08;;;;;;;0.30;0.30;;;8.30;62.30;;;;;;20873477;28;20116;-80
2021/04/08 00:11:10;;;;;;;0.20;0.20;;;8.30;62.30;;;;;;20873628;28;20337;-78
2021/04/08 00:21:11;;;;;;;0.32;0.32;;;8.30;62.30;;;;;;20887605;28;20033;-77
2021/04/08 00:31:11;;;;;;;1.90;0.43;;;8.30;62.30;;;;;;20872374;28;20091;-76
2021/04/08 00:41:12;;;;;;;0.20;0.10;;;8.30;62.40;;;;;;20871545;28;20417;-77
2021/04/08 00:51:13;;;;;;;2.47;0.47;;;8.30;62.30;;;;;;20870681;28;20356;-78
2021/04/08 01:01:14;;;;;;;0.10;0.10;;;8.30;62.30;;;;;;20870087;28;20025;-78
2021/04/08 01:11:15;;;;;;;1.60;0.13;;;8.30;62.30;;;;;;20869166;28;20090;-77
2021/04/08 01:21:26;;;;;;;0.00;0.00;;;8.30;62.30;;;;;;20887158;28;20029;-78
2021/04/08 01:31:27;;;;;;;0.10;0.10;;;8.30;62.30;;;;;;20879038;28;20052;-78
2021/04/08 01:41:28;;;;;;;3.10;0.30;;;8.30;62.20;;;;;;20924993;28;20036;-78
2021/04/08 01:51:28;;;;;;;3.92;0.25;;;8.30;62.10;;;;;;20999221;28;20416;-79
2021/04/08 02:01:29;;;;;;;0.00;0.00;;;8.30;62.10;;;;;;20965228;28;20290;-78
2021/04/08 02:11:30;;;;;;;0.10;0.10;;;8.30;62.10;;;;;;20981028;28;20147;-78
2021/04/08 02:21:30;;;;;;;0.52;0.30;;;8.30;62.00;;;;;;20963919;28;20360;-77
2021/04/08 02:31:31;;;;;;;0.95;0.20;;;8.30;62.00;;;;;;20979945;28;20103;-77
2021/04/08 02:41:35;;;;;;;0.47;0.20;;;8.30;62.00;;;;;;20977403;28;20291;-78
2021/04/08 02:51:54;;;;;;;0.22;0.17;;;8.30;62.00;;;;;;20961582;28;20295;-78
2021/04/08 03:02:09;;;;;;;0.15;0.10;;;8.30;62.00;;;;;;20960706;28;20036;-78
2021/04/08 03:12:13;;;;;;;0.00;0.00;;;8.20;61.80;;;;;;20959802;28;20477;-78
2021/04/08 03:22:14;;;;;;;0.38;0.30;;;8.20;61.80;;;;;;20976019;28;20036;-78
2021/04/08 03:32:20;;;;;;;0.03;0.03;;;8.20;61.70;;;;;;20975153;28;20067;-77
2021/04/08 03:42:20;;;;;;;1.67;0.30;;;8.30;61.80;;;;;;20947260;28;20094;-77
2021/04/08 03:52:21;;;;;;;0.20;0.10;;;8.30;61.70;;;;;;20989587;28;20044;-78
2021/04/08 04:02:22;;;;;;;0.05;0.05;;;8.30;61.70;;;;;;20955868;28;20028;-78
2021/04/08 04:12:22;;;;;;;0.00;0.00;;;8.20;61.60;;;;;;20988255;28;20295;-78
2021/04/08 04:22:23;;;;;;;0.17;0.17;;;8.30;61.90;;;;;;20971113;28;20024;-78
2021/04/08 04:32:25;;;;;;;0.25;0.25;;;8.40;62.00;;;;;;20971199;28;20047;-78
2021/04/08 04:42:25;;;;;;;1.23;0.22;;;8.50;62.00;;;;;;20970072;28;20032;-78
2021/04/08 04:52:26;;;;;;;0.13;0.13;;;8.70;61.70;;;;;;20969524;28;20541;-78
2021/04/08 05:02:27;;;;;;;0.05;0.05;;;8.80;61.30;;;;;;20972304;28;20028;-78
2021/04/08 05:12:28;;;;;;;0.00;0.00;;;8.80;60.80;;;;;;20969337;28;20475;-78
2021/04/08 05:22:28;;;;;;;0.10;0.10;;;8.80;60.30;;;;;;20985284;28;20072;-78
2021/04/08 05:32:29;;;;;;;7.40;0.27;;;8.80;59.80;;;;;;20984596;28;20834;-78
2021/04/08 05:42:30;;;;;;;3.85;0.47;;;8.60;59.60;;;;;;20963718;28;20436;-78
2021/04/08 05:52:30;;;;;;;0.10;0.00;;;8.60;59.70;;;;;;20905957;28;20490;-78
2021/04/08 06:02:31;;;;;;;0.13;0.13;;;8.50;59.90;;;;;;20915880;28;20530;-78
2021/04/08 06:12:31;;;;;;;1.25;0.60;;;8.50;59.90;;;;;;20897712;28;20399;-78
2021/04/08 06:22:32;;;;;;;1.02;0.30;;;8.40;60.00;;;;;;20880736;28;20372;-78
2021/04/08 06:32:33;;;;;;;0.88;0.40;;;8.40;60.20;;;;;;20913568;28;20037;-78
2021/04/08 06:42:34;;;;;;;0.35;0.32;;;8.40;60.30;;;;;;20896146;28;20056;-78
2021/04/08 06:52:35;;;;;;;0.45;0.17;;;8.40;60.40;;;;;;20879543;28;20452;-79
2021/04/08 07:02:36;;;;;;;1.27;0.40;;;8.40;60.50;;;;;;20876710;28;20111;-77
2021/04/08 07:12:37;;;;;;;0.35;0.13;;;8.40;60.80;;;;;;20876413;28;20045;-78
2021/04/08 07:22:38;;;;;;;0.63;0.22;;;8.40;60.80;;;;;;20877854;28;20402;-73
2021/04/08 07:32:40;;;;;;;0.17;0.05;;;8.40;61.00;;;;;;20911870;28;20044;-81
2021/04/08 07:42:44;;;;;;;0.10;0.10;;;8.60;61.20;;;;;;20891268;28;20290;-83
2021/04/08 07:52:47;;;;;;;0.75;0.60;;;8.70;61.00;;;;;;20874517;28;20068;-84
2021/04/08 08:02:48;;;;;;;1.60;0.45;;;8.80;60.70;;;;;;20905358;28;20060;-84
2021/04/08 08:12:50;;;;;;;0.00;0.00;;;8.80;60.10;;;;;;20886650;28;20051;-85
2021/04/08 08:22:53;;;;;;;0.20;0.20;;;8.80;59.90;;;;;;20884616;28;20033;-84
2021/04/08 08:33:05;;;;;;;0.45;0.45;;;8.70;59.80;;;;;;21269969;22;20073;-83
2021/04/08 08:43:05;;;;;;;0.43;0.10;;;8.60;59.90;;;;;;20882450;28;20087;-78
2021/04/08 08:53:08;;;;;;;1.10;0.30;;;8.60;59.90;;;;;;20890557;28;20045;-79
2021/04/08 09:03:10;;;;;;;0.38;0.10;;;8.50;60.00;;;;;;20893176;28;20130;-77
2021/04/08 09:13:11;;;;;;;1.65;0.47;;;8.50;60.10;;;;;;20873938;28;20497;-76
2021/04/08 09:23:12;;;;;;;0.70;0.43;;;8.50;60.20;;;;;;20910015;28;20029;-79
2021/04/08 09:33:13;;;;;;;0.08;0.08;;;8.50;60.20;;;;;;20890410;28;20132;-77
2021/04/08 09:43:23;;;;;;;0.45;0.22;;;8.50;60.30;;;;;;20891073;28;20447;-81
2021/04/08 09:53:49;;;;;;;0.08;0.08;;;8.50;60.30;;;;;;20886761;28;20291;-77
2021/04/08 10:03:50;;;;;;;0.10;0.10;;;8.50;60.30;;;;;;20900956;28;20120;-80
2021/04/08 10:13:51;;;;;;;0.73;0.17;;;8.50;60.30;;;;;;20887927;28;20039;-74
2021/04/08 10:23:52;;;;;;;0.15;0.15;;;8.50;60.20;;;;;;20919511;28;20283;-78
2021/04/08 10:33:55;;;;;;;0.00;0.00;;;8.50;60.10;;;;;;20899364;28;20094;-73
2021/04/08 10:43:55;;;;;;;3.70;0.32;;;8.50;60.10;;;;;;20913251;28;20036;-73
2021/04/08 10:53:56;;;;;;;5.50;0.35;;;8.40;59.90;;;;;;20913873;28;20041;-73
2021/04/08 11:04:06;;;;;;;0.82;0.45;;;8.50;60.00;;;;;;20888201;28;20043;-74
2021/04/08 11:14:07;;;;;;;1.60;0.40;;;8.50;59.70;;;;;;20836746;28;20037;-73
2021/04/08 11:24:08;;;;;;;0.10;0.10;;;8.50;59.60;;;;;;20893157;28;20112;-73
2021/04/08 11:34:08;;;;;;;0.47;0.20;;;8.50;59.40;;;;;;20891631;28;20052;-72
2021/04/08 11:44:11;;;;;;;1.95;0.22;;;8.40;59.20;;;;;;20908457;28;20041;-75
2021/04/08 11:54:13;;;;;;;0.00;0.00;;;8.40;59.20;;;;;;20905665;28;20052;-75
2021/04/08 12:04:15;;;;;;;0.47;0.30;;;8.40;59.10;;;;;;20955636;28;20497;-73
2021/04/08 12:14:15;;;;;;;0.00;0.00;;;8.40;58.90;;;;;;20972346;28;20049;-73
2021/04/08 12:24:16;;;;;;;0.00;0.00;;;8.40;59.00;;;;;;20972927;28;20129;-73
2021/04/08 12:34:16;;;;;;;0.32;0.10;;;8.40;59.00;;;;;;20954083;28;20287;-73
2021/04/08 12:44:17;;;;;;;0.40;0.10;;;8.40;58.90;;;;;;20953923;28;20120;-73
2021/04/08 12:54:18;;;;;;;0.30;0.20;;;8.50;59.00;;;;;;20953383;28;20040;-73
2021/04/08 13:04:18;;;;;;;0.10;0.10;;;8.50;58.90;;;;;;20941343;28;20648;-74
2021/04/08 13:14:19;;;;;;;0.20;0.20;;;8.40;58.80;;;;;;20919806;28;20457;-74
2021/04/08 13:24:19;;;;;;;0.00;0.00;;;8.50;58.90;;;;;;20869877;28;20479;-75
2021/04/08 13:34:20;;;;;;;1.45;0.40;;;8.50;59.00;;;;;;20901289;28;20041;-73
2021/04/08 13:44:21;;;;;;;0.13;0.13;;;8.50;59.00;;;;;;20896690;28;20033;-73
2021/04/08 13:54:21;;;;;;;0.13;0.13;;;8.50;59.00;;;;;;20916213;28;20191;-74
2021/04/08 14:04:23;;;;;;;0.40;0.40;;;8.50;59.20;;;;;;20898917;28;20781;-76
2021/04/08 14:14:23;;;;;;;0.22;0.10;;;8.50;59.20;;;;;;20882267;28;20033;-75
2021/04/08 14:24:24;;;;;;;0.45;0.05;;;8.60;59.60;;;;;;20915729;28;20474;-74
2021/04/08 14:34:24;;;;;;;0.03;0.03;;;8.90;59.80;;;;;;20879051;28;20033;-74
2021/04/08 14:44:25;;;;;;;0.32;0.32;;;9.20;59.90;;;;;;20890293;28;20282;-73
2021/04/08 14:54:26;;;;;;;0.35;0.30;;;9.30;59.60;;;;;;20887199;28;20693;-71
2021/04/08 15:04:26;;;;;;;5.20;0.60;;;9.40;59.60;;;;;;20911195;28;20445;-71
2021/04/08 15:14:27;;;;;;;1.50;0.88;;;9.40;59.30;;;;;;20893695;28;20301;-72
2021/04/08 15:24:28;;;;;;;0.60;0.52;;;9.50;59.10;;;;;;20911154;28;20290;-70
2021/04/08 15:34:28;;;;;;;1.33;0.73;;;9.50;59.10;;;;;;20890918;28;20033;-70
2021/04/08 15:44:29;;;;;;;3.35;0.60;;;9.50;59.00;;;;;;20908915;28;20382;-74
2021/04/08 15:54:30;;;;;;;1.03;0.83;;;9.50;59.10;;;;;;20737855;28;20045;-76
2021/04/08 16:04:31;;;;;;;3.17;0.65;;;9.30;58.70;;;;;;20670246;28;20946;-74
2021/04/08 16:14:31;;;;;;;1.00;0.77;;;9.10;58.70;;;;;;20651221;28;20032;-75
2021/04/08 16:24:32;;;;;;;6.20;0.70;;;9.00;58.40;;;;;;20852947;28;20024;-72
2021/04/08 16:34:32;;;;;;;0.45;0.45;;;9.00;58.30;;;;;;20909220;28;20032;-71
2021/04/08 16:44:34;;;;;;;0.40;0.40;;;8.90;58.10;;;;;;20921671;28;20025;-74
2021/04/08 16:54:34;;;;;;;1.63;0.47;;;8.90;58.20;;;;;;20952487;28;20765;-73
2021/04/08 17:04:35;;;;;;;2.20;0.60;;;8.90;58.30;;;;;;20968997;28;20039;-73
2021/04/08 17:14:37;;;;;;;0.50;0.50;;;8.90;58.40;;;;;;20971824;28;20298;-74
2021/04/08 17:24:38;;;;;;;0.38;0.38;;;8.80;58.40;;;;;;20984648;28;20123;-74
2021/04/08 17:34:38;;;;;;;0.70;0.30;;;8.80;58.50;;;;;;20967247;28;20431;-72
2021/04/08 17:44:39;;;;;;;0.15;0.13;;;8.80;58.60;;;;;;20931891;28;20287;-71
2021/04/08 17:54:39;;;;;;;0.63;0.32;;;8.80;58.70;;;;;;20975007;28;20033;-74
2021/04/08 18:04:40;;;;;;;2.28;0.55;;;8.80;58.70;;;;;;20983789;28;20032;-73
2021/04/08 18:14:41;;;;;;;0.38;0.17;;;8.80;58.80;;;;;;20921979;28;20048;-73
2021/04/08 18:24:41;;;;;;;0.30;0.30;;;8.90;59.00;;;;;;20898875;28;20089;-73
2021/04/08 18:34:42;;;;;;;0.28;0.28;;;8.80;59.00;;;;;;20889767;28;20124;-72
2021/04/08 18:44:42;;;;;;;0.85;0.20;;;8.80;59.10;;;;;;20896894;28;20060;-74
2021/04/08 18:54:43;;;;;;;1.13;0.73;;;8.80;59.10;;;;;;20895759;28;20040;-74
2021/04/08 19:04:44;;;;;;;0.55;0.43;;;8.80;59.20;;;;;;20911520;28;20111;-75
2021/04/08 19:14:44;;;;;;;0.40;0.22;;;8.90;59.40;;;;;;20893670;28;20295;-74
2021/04/08 19:24:45;;;;;;;0.73;0.73;;;8.80;59.30;;;;;;20936960;28;20760;-73
2021/04/08 19:34:45;;;;;;;1.75;0.55;;;8.80;59.40;;;;;;20910995;28;20246;-74
2021/04/08 19:44:46;;;;;;;0.65;0.50;;;8.80;59.40;;;;;;20890495;28;20279;-74
2021/04/08 19:54:47;;;;;;;1.00;0.30;;;8.80;59.50;;;;;;20887194;28;20464;-74
2021/04/08 20:04:47;;;;;;;0.20;0.20;;;8.80;60.20;;;;;;20885376;28;20337;-74
2021/04/08 20:14:48;;;;;;;0.20;0.20;;;8.80;59.60;;;;;;20905703;28;20299;-73
2021/04/08 20:24:48;;;;;;;0.22;0.22;;;8.80;59.60;;;;;;20871861;28;20279;-74
2021/04/08 20:34:49;;;;;;;0.82;0.82;;;8.80;59.60;;;;;;20869521;28;20283;-72
2021/04/08 20:44:51;;;;;;;2.03;0.43;;;8.80;59.60;;;;;;20887409;28;20033;-72
2021/04/08 20:54:51;;;;;;;0.77;0.50;;;8.80;59.70;;;;;;20871156;28;20338;-73
2021/04/08 21:04:52;;;;;;;0.45;0.40;;;8.80;59.60;;;;;;20887099;28;20120;-72
2021/04/08 21:14:52;;;;;;;0.70;0.45;;;8.80;59.60;;;;;;20886751;28;20037;-72
2021/04/08 21:24:53;;;;;;;0.15;0.15;;;8.70;59.60;;;;;;20886563;28;20035;-72
2021/04/08 21:34:54;;;;;;;0.52;0.30;;;8.80;59.60;;;;;;20901745;28;20033;-73
2021/04/08 21:44:54;;;;;;;0.30;0.20;;;8.70;59.60;;;;;;20871121;28;20029;-71
2021/04/08 21:54:55;;;;;;;0.20;0.13;;;8.70;59.60;;;;;;20917325;28;20291;-72
2021/04/08 22:04:55;;;;;;;0.40;0.30;;;8.70;59.60;;;;;;20900114;28;20304;-73
2021/04/08 22:14:56;;;;;;;0.28;0.28;;;8.70;59.60;;;;;;20883554;28;20048;-72
2021/04/08 22:24:56;;;;;;;0.55;0.52;;;8.80;59.60;;;;;;20898455;28;20029;-73
2021/04/08 22:34:57;;;;;;;0.75;0.60;;;8.70;59.60;;;;;;20881080;28;20288;-72
2021/04/08 22:44:58;;;;;;;0.20;0.20;;;8.80;59.60;;;;;;20896946;28;20039;-74
2021/04/08 22:54:58;;;;;;;0.47;0.47;;;8.70;59.60;;;;;;20912071;28;20668;-73
2021/04/08 23:04:59;;;;;;;0.20;0.20;;;8.70;59.60;;;;;;20878376;28;20040;-73
2021/04/08 23:14:59;;;;;;;0.20;0.20;;;8.70;59.60;;;;;;20894275;28;20132;-72
2021/04/08 23:25:00;;;;;;;0.55;0.30;;;8.70;59.50;;;;;;20910806;28;20025;-72
2021/04/08 23:35:01;;;;;;;0.32;0.22;;;8.80;59.60;;;;;;20883601;28;20616;-74
2021/04/08 23:45:03;;;;;;;0.50;0.50;;;8.70;59.60;;;;;;20891626;28;20090;-73
2021/04/08 23:55:05;;;;;;;0.38;0.38;;;8.70;59.60;;;;;;20891609;28;20448;-73
